Main page
METAR-TAF:

METAR-TAF

Airports :

Islay Airport

Islay, Scotland

latitude: 55-40-55N, longitude: 006-15-24W, elevation: 16 m

Current weather observation

The report was made 38 minutes ago, at 19:20 UTC
Wind 25 kt from the Southeast with gusts up to 37 kt, varying between East and South/Southeast
Temperature 13°C
Humidity 82%
Pressure 997 hPa
Visibility 10 km or more

METAR: EGPI 251920Z AUTO 13025G37KT 100V160 9999 NCD 13/10 Q0997

Time: 20:58 (19:58 UTC)

Forecast

The report was made 6 hours and 2 minutes ago, at 13:56 UTC
Forecast valid from 25 at 15 UTC to 25 at 18 UTC
Wind 25 kt from the Southeast with gusts up to 38 kt
Visibility 10 km or more
Scattered clouds at a height of 4000 ft

TAF: EGPI 251356Z 2515/2518 14025G38KT 9999 SCT040

Weather observations and forecasts of more than 4000 airports (METAR and TAF reports).

The available stations are represented by yellow and red dots on the map.

Hover mouse over dot to see the name of the station.

Then click to see weather observations and forecasts.

To change the map : click on the green buttons with a black cross to zoom in, on the green button with a dash to zoom out, or on the green arrows for adjacent maps.


METAR-TAF: